sensor_id;sensor_type;location;lat;lon;timestamp;temperature;humidity
7566;DHT22;3824;48.010;7.832;2022-10-31T00:02:03;13.10;99.90
7566;DHT22;3824;48.010;7.832;2022-10-31T00:04:29;13.00;99.90
7566;DHT22;3824;48.010;7.832;2022-10-31T00:06:57;13.10;99.90
7566;DHT22;3824;48.010;7.832;2022-10-31T00:09:25;13.00;99.90
7566;DHT22;3824;48.010;7.832;2022-10-31T00:11:52;13.10;99.90
7566;DHT22;3824;48.010;7.832;2022-10-31T00:14:19;13.30;99.90
7566;DHT22;3824;48.010;7.832;2022-10-31T00:16:46;13.00;99.90
7566;DHT22;3824;48.010;7.832;2022-10-31T00:19:12;13.00;99.90
7566;DHT22;3824;48.010;7.832;2022-10-31T00:21:39;13.10;99.90
7566;DHT22;3824;48.010;7.832;2022-10-31T00:24:06;13.00;99.90
7566;DHT22;3824;48.010;7.832;2022-10-31T00:26:35;13.00;99.90
7566;DHT22;3824;48.010;7.832;2022-10-31T00:29:02;13.00;99.90
7566;DHT22;3824;48.010;7.832;2022-10-31T00:31:29;13.00;99.90
7566;DHT22;3824;48.010;7.832;2022-10-31T00:33:56;13.00;99.90
7566;DHT22;3824;48.010;7.832;2022-10-31T00:36:23;13.00;99.90
7566;DHT22;3824;48.010;7.832;2022-10-31T00:38:50;13.00;99.90
7566;DHT22;3824;48.010;7.832;2022-10-31T00:41:17;13.00;99.90
7566;DHT22;3824;48.010;7.832;2022-10-31T00:43:45;13.10;99.90
7566;DHT22;3824;48.010;7.832;2022-10-31T00:46:13;13.00;99.90
7566;DHT22;3824;48.010;7.832;2022-10-31T00:48:40;13.00;99.90
7566;DHT22;3824;48.010;7.832;2022-10-31T00:51:07;13.00;99.90
7566;DHT22;3824;48.010;7.832;2022-10-31T00:53:34;13.00;99.90
7566;DHT22;3824;48.010;7.832;2022-10-31T00:56:01;13.00;99.90
7566;DHT22;3824;48.010;7.832;2022-10-31T00:58:28;13.00;99.90
7566;DHT22;3824;48.010;7.832;2022-10-31T01:00:56;13.10;99.90
7566;DHT22;3824;48.010;7.832;2022-10-31T01:03:23;13.00;99.90
7566;DHT22;3824;48.010;7.832;2022-10-31T01:06:00;13.00;99.90
7566;DHT22;3824;48.010;7.832;2022-10-31T01:08:28;12.80;99.90
7566;DHT22;3824;48.010;7.832;2022-10-31T01:11:03;12.80;99.90
7566;DHT22;3824;48.010;7.832;2022-10-31T01:13:30;12.70;99.90
7566;DHT22;3824;48.010;7.832;2022-10-31T01:16:00;12.70;99.90
7566;DHT22;3824;48.010;7.832;2022-10-31T01:18:28;12.60;99.90
7566;DHT22;3824;48.010;7.832;2022-10-31T01:20:59;12.40;99.90
7566;DHT22;3824;48.010;7.832;2022-10-31T01:23:27;12.40;99.90
7566;DHT22;3824;48.010;7.832;2022-10-31T01:26:02;12.30;99.90
7566;DHT22;3824;48.010;7.832;2022-10-31T01:28:29;12.60;99.90
7566;DHT22;3824;48.010;7.832;2022-10-31T01:31:02;12.30;99.90
7566;DHT22;3824;48.010;7.832;2022-10-31T01:33:28;12.20;99.90
7566;DHT22;3824;48.010;7.832;2022-10-31T01:35:55;12.20;99.90
7566;DHT22;3824;48.010;7.832;2022-10-31T01:38:22;12.20;99.90
7566;DHT22;3824;48.010;7.832;2022-10-31T01:40:49;12.10;99.90
7566;DHT22;3824;48.010;7.832;2022-10-31T01:43:17;12.20;99.90
7566;DHT22;3824;48.010;7.832;2022-10-31T01:45:47;12.10;99.90
7566;DHT22;3824;48.010;7.832;2022-10-31T01:48:20;12.10;99.90
7566;DHT22;3824;48.010;7.832;2022-10-31T01:50:48;12.10;99.90
7566;DHT22;3824;48.010;7.832;2022-10-31T01:53:18;10.00;99.90
7566;DHT22;3824;48.010;7.832;2022-10-31T01:55:46;12.10;99.90
7566;DHT22;3824;48.010;7.832;2022-10-31T01:58:15;12.10;99.90
7566;DHT22;3824;48.010;7.832;2022-10-31T02:00:46;12.10;99.90
7566;DHT22;3824;48.010;7.832;2022-10-31T02:03:16;12.10;99.90
7566;DHT22;3824;48.010;7.832;2022-10-31T02:05:45;12.10;99.90
7566;DHT22;3824;48.010;7.832;2022-10-31T02:08:15;12.10;99.90
7566;DHT22;3824;48.010;7.832;2022-10-31T02:10:43;12.10;99.90
7566;DHT22;3824;48.010;7.832;2022-10-31T02:13:11;12.10;99.90
7566;DHT22;3824;48.010;7.832;2022-10-31T02:15:40;12.10;99.90
7566;DHT22;3824;48.010;7.832;2022-10-31T02:18:08;12.10;99.90
7566;DHT22;3824;48.010;7.832;2022-10-31T02:20:42;12.10;99.90
7566;DHT22;3824;48.010;7.832;2022-10-31T02:26:31;12.10;99.90
7566;DHT22;3824;48.010;7.832;2022-10-31T02:29:24;12.10;99.90
7566;DHT22;3824;48.010;7.832;2022-10-31T02:32:01;12.10;99.90
7566;DHT22;3824;48.010;7.832;2022-10-31T02:34:36;12.10;99.90
7566;DHT22;3824;48.010;7.832;2022-10-31T02:37:10;12.10;99.90
7566;DHT22;3824;48.010;7.832;2022-10-31T02:39:46;12.10;99.90
7566;DHT22;3824;48.010;7.832;2022-10-31T02:42:33;12.20;99.90
7566;DHT22;3824;48.010;7.832;2022-10-31T02:45:07;12.10;99.90
7566;DHT22;3824;48.010;7.832;2022-10-31T02:47:41;12.10;99.90
7566;DHT22;3824;48.010;7.832;2022-10-31T02:50:13;12.10;99.90
7566;DHT22;3824;48.010;7.832;2022-10-31T02:52:41;12.10;99.90
7566;DHT22;3824;48.010;7.832;2022-10-31T02:55:11;12.10;99.90
7566;DHT22;3824;48.010;7.832;2022-10-31T02:57:40;12.10;99.90
7566;DHT22;3824;48.010;7.832;2022-10-31T03:00:09;12.10;99.90
7566;DHT22;3824;48.010;7.832;2022-10-31T03:02:58;12.10;99.90
7566;DHT22;3824;48.010;7.832;2022-10-31T03:05:44;12.10;99.90
7566;DHT22;3824;48.010;7.832;2022-10-31T03:08:22;12.10;99.90
7566;DHT22;3824;48.010;7.832;2022-10-31T03:10:53;12.10;99.90
7566;DHT22;3824;48.010;7.832;2022-10-31T03:13:27;12.10;99.90
7566;DHT22;3824;48.010;7.832;2022-10-31T03:16:04;12.00;99.90
7566;DHT22;3824;48.010;7.832;2022-10-31T03:18:39;12.00;99.90
7566;DHT22;3824;48.010;7.832;2022-10-31T03:21:08;12.00;99.90
7566;DHT22;3824;48.010;7.832;2022-10-31T03:23:37;12.10;99.90
7566;DHT22;3824;48.010;7.832;2022-10-31T03:26:07;12.00;99.90
7566;DHT22;3824;48.010;7.832;2022-10-31T03:28:37;11.90;99.90
7566;DHT22;3824;48.010;7.832;2022-10-31T03:31:07;11.90;99.90
7566;DHT22;3824;48.010;7.832;2022-10-31T03:33:36;11.90;99.90
7566;DHT22;3824;48.010;7.832;2022-10-31T03:36:06;11.90;99.90
7566;DHT22;3824;48.010;7.832;2022-10-31T03:38:35;11.90;99.90
7566;DHT22;3824;48.010;7.832;2022-10-31T03:41:04;11.90;99.90
7566;DHT22;3824;48.010;7.832;2022-10-31T03:43:35;11.80;99.90
7566;DHT22;3824;48.010;7.832;2022-10-31T03:46:04;11.80;99.90
7566;DHT22;3824;48.010;7.832;2022-10-31T03:48:32;11.80;99.90
7566;DHT22;3824;48.010;7.832;2022-10-31T03:51:06;11.80;99.90
7566;DHT22;3824;48.010;7.832;2022-10-31T03:53:39;11.80;99.90
7566;DHT22;3824;48.010;7.832;2022-10-31T03:56:11;12.00;99.90
7566;DHT22;3824;48.010;7.832;2022-10-31T03:58:43;11.80;99.90
7566;DHT22;3824;48.010;7.832;2022-10-31T04:01:15;11.80;99.90
7566;DHT22;3824;48.010;7.832;2022-10-31T04:03:43;11.80;99.90
7566;DHT22;3824;48.010;7.832;2022-10-31T04:06:14;11.80;99.90
7566;DHT22;3824;48.010;7.832;2022-10-31T04:08:45;11.80;99.90
7566;DHT22;3824;48.010;7.832;2022-10-31T04:11:14;11.80;99.90
7566;DHT22;3824;48.010;7.832;2022-10-31T04:13:44;11.80;99.90
7566;DHT22;3824;48.010;7.832;2022-10-31T04:16:13;11.70;99.90
7566;DHT22;3824;48.010;7.832;2022-10-31T04:18:41;11.70;99.90
7566;DHT22;3824;48.010;7.832;2022-10-31T04:21:08;11.70;99.90
7566;DHT22;3824;48.010;7.832;2022-10-31T04:23:36;11.70;99.90
7566;DHT22;3824;48.010;7.832;2022-10-31T04:26:04;11.70;99.90
7566;DHT22;3824;48.010;7.832;2022-10-31T04:28:30;11.70;99.90
7566;DHT22;3824;48.010;7.832;2022-10-31T04:30:59;11.60;99.90
7566;DHT22;3824;48.010;7.832;2022-10-31T04:33:26;11.60;99.90
7566;DHT22;3824;48.010;7.832;2022-10-31T04:35:52;11.60;99.90
7566;DHT22;3824;48.010;7.832;2022-10-31T04:38:19;11.60;99.90
7566;DHT22;3824;48.010;7.832;2022-10-31T04:40:47;10.40;99.90
7566;DHT22;3824;48.010;7.832;2022-10-31T04:43:14;11.50;99.90
7566;DHT22;3824;48.010;7.832;2022-10-31T04:45:41;11.50;99.90
7566;DHT22;3824;48.010;7.832;2022-10-31T04:48:08;11.40;99.90
7566;DHT22;3824;48.010;7.832;2022-10-31T04:50:34;11.40;99.90
7566;DHT22;3824;48.010;7.832;2022-10-31T04:53:01;11.30;99.90
7566;DHT22;3824;48.010;7.832;2022-10-31T04:55:28;11.30;99.90
7566;DHT22;3824;48.010;7.832;2022-10-31T04:57:56;11.30;99.90
7566;DHT22;3824;48.010;7.832;2022-10-31T05:00:23;11.30;99.90
7566;DHT22;3824;48.010;7.832;2022-10-31T05:02:51;11.30;99.90
7566;DHT22;3824;48.010;7.832;2022-10-31T05:05:20;11.20;99.90
7566;DHT22;3824;48.010;7.832;2022-10-31T05:07:48;11.20;99.90
7566;DHT22;3824;48.010;7.832;2022-10-31T05:10:18;11.20;99.90
7566;DHT22;3824;48.010;7.832;2022-10-31T05:12:45;11.20;99.90
7566;DHT22;3824;48.010;7.832;2022-10-31T05:15:15;11.20;99.90
7566;DHT22;3824;48.010;7.832;2022-10-31T05:17:42;11.10;99.90
7566;DHT22;3824;48.010;7.832;2022-10-31T05:20:09;11.20;99.90
7566;DHT22;3824;48.010;7.832;2022-10-31T05:22:36;11.10;99.90
7566;DHT22;3824;48.010;7.832;2022-10-31T05:25:04;11.10;99.90
7566;DHT22;3824;48.010;7.832;2022-10-31T05:27:30;11.10;99.90
7566;DHT22;3824;48.010;7.832;2022-10-31T05:29:57;11.10;99.90
7566;DHT22;3824;48.010;7.832;2022-10-31T05:32:25;11.20;99.90
7566;DHT22;3824;48.010;7.832;2022-10-31T05:34:52;11.20;99.90
7566;DHT22;3824;48.010;7.832;2022-10-31T05:37:19;11.20;99.90
7566;DHT22;3824;48.010;7.832;2022-10-31T05:39:46;11.20;99.90
7566;DHT22;3824;48.010;7.832;2022-10-31T05:42:12;11.20;99.90
7566;DHT22;3824;48.010;7.832;2022-10-31T05:44:39;11.20;99.90
7566;DHT22;3824;48.010;7.832;2022-10-31T05:47:06;11.20;99.90
7566;DHT22;3824;48.010;7.832;2022-10-31T05:49:34;11.20;99.90
7566;DHT22;3824;48.010;7.832;2022-10-31T05:52:01;11.30;99.90
7566;DHT22;3824;48.010;7.832;2022-10-31T05:54:28;11.20;99.90
7566;DHT22;3824;48.010;7.832;2022-10-31T05:56:54;11.20;99.90
7566;DHT22;3824;48.010;7.832;2022-10-31T05:59:21;11.20;99.90
7566;DHT22;3824;48.010;7.832;2022-10-31T06:01:48;11.30;99.90
7566;DHT22;3824;48.010;7.832;2022-10-31T06:04:15;11.30;99.90
7566;DHT22;3824;48.010;7.832;2022-10-31T06:06:43;11.30;99.90
7566;DHT22;3824;48.010;7.832;2022-10-31T06:09:10;11.30;99.90
7566;DHT22;3824;48.010;7.832;2022-10-31T06:11:37;11.30;99.90
7566;DHT22;3824;48.010;7.832;2022-10-31T06:14:03;11.30;99.90
7566;DHT22;3824;48.010;7.832;2022-10-31T06:16:30;11.40;99.90
7566;DHT22;3824;48.010;7.832;2022-10-31T06:18:57;11.40;99.90
7566;DHT22;3824;48.010;7.832;2022-10-31T06:21:24;11.40;99.90
7566;DHT22;3824;48.010;7.832;2022-10-31T06:23:52;11.40;99.90
7566;DHT22;3824;48.010;7.832;2022-10-31T06:26:19;11.50;99.90
7566;DHT22;3824;48.010;7.832;2022-10-31T06:28:46;11.40;99.90
7566;DHT22;3824;48.010;7.832;2022-10-31T06:31:13;11.50;99.90
7566;DHT22;3824;48.010;7.832;2022-10-31T06:33:41;11.60;99.90
7566;DHT22;3824;48.010;7.832;2022-10-31T06:36:08;11.60;99.90
7566;DHT22;3824;48.010;7.832;2022-10-31T06:38:35;11.60;99.90
7566;DHT22;3824;48.010;7.832;2022-10-31T06:41:04;11.60;99.90
7566;DHT22;3824;48.010;7.832;2022-10-31T06:43:31;11.60;99.90
7566;DHT22;3824;48.010;7.832;2022-10-31T06:46:02;11.70;99.90
7566;DHT22;3824;48.010;7.832;2022-10-31T06:48:29;11.70;99.90
7566;DHT22;3824;48.010;7.832;2022-10-31T06:50:57;11.80;99.90
7566;DHT22;3824;48.010;7.832;2022-10-31T06:53:25;11.80;99.90
7566;DHT22;3824;48.010;7.832;2022-10-31T06:55:55;11.80;99.90
7566;DHT22;3824;48.010;7.832;2022-10-31T06:58:23;11.80;99.90
7566;DHT22;3824;48.010;7.832;2022-10-31T07:00:50;11.80;99.90
7566;DHT22;3824;48.010;7.832;2022-10-31T07:03:17;11.90;99.90
7566;DHT22;3824;48.010;7.832;2022-10-31T07:05:46;12.00;99.90
7566;DHT22;3824;48.010;7.832;2022-10-31T07:08:13;12.00;99.90
7566;DHT22;3824;48.010;7.832;2022-10-31T07:10:42;12.00;99.90
7566;DHT22;3824;48.010;7.832;2022-10-31T07:13:11;12.00;99.90
7566;DHT22;3824;48.010;7.832;2022-10-31T07:15:41;12.00;99.90
7566;DHT22;3824;48.010;7.832;2022-10-31T07:18:09;12.10;99.90
7566;DHT22;3824;48.010;7.832;2022-10-31T07:20:37;12.20;99.90
7566;DHT22;3824;48.010;7.832;2022-10-31T07:23:04;12.20;99.90
7566;DHT22;3824;48.010;7.832;2022-10-31T07:25:31;12.30;99.90
7566;DHT22;3824;48.010;7.832;2022-10-31T07:27:58;12.40;99.90
7566;DHT22;3824;48.010;7.832;2022-10-31T07:30:24;12.40;99.90
7566;DHT22;3824;48.010;7.832;2022-10-31T07:32:53;12.50;99.90
7566;DHT22;3824;48.010;7.832;2022-10-31T07:35:22;12.60;99.90
7566;DHT22;3824;48.010;7.832;2022-10-31T07:37:56;12.70;99.90
7566;DHT22;3824;48.010;7.832;2022-10-31T07:40:24;12.90;99.90
7566;DHT22;3824;48.010;7.832;2022-10-31T07:42:52;13.00;99.90
7566;DHT22;3824;48.010;7.832;2022-10-31T07:45:20;13.10;99.90
7566;DHT22;3824;48.010;7.832;2022-10-31T07:47:48;13.10;99.90
7566;DHT22;3824;48.010;7.832;2022-10-31T07:50:18;13.20;99.90
7566;DHT22;3824;48.010;7.832;2022-10-31T07:52:45;13.30;99.90
7566;DHT22;3824;48.010;7.832;2022-10-31T07:55:12;13.50;99.90
7566;DHT22;3824;48.010;7.832;2022-10-31T07:57:39;13.50;99.90
7566;DHT22;3824;48.010;7.832;2022-10-31T08:00:09;13.60;99.90
7566;DHT22;3824;48.010;7.832;2022-10-31T08:02:36;13.70;99.90
7566;DHT22;3824;48.010;7.832;2022-10-31T08:05:04;13.80;99.90
7566;DHT22;3824;48.010;7.832;2022-10-31T08:07:36;13.80;99.90
7566;DHT22;3824;48.010;7.832;2022-10-31T08:10:03;13.80;99.90
7566;DHT22;3824;48.010;7.832;2022-10-31T08:12:30;13.90;99.90
7566;DHT22;3824;48.010;7.832;2022-10-31T08:14:57;13.90;99.90
7566;DHT22;3824;48.010;7.832;2022-10-31T08:17:24;14.00;99.90
7566;DHT22;3824;48.010;7.832;2022-10-31T08:19:51;14.10;99.90
7566;DHT22;3824;48.010;7.832;2022-10-31T08:22:17;14.20;99.90
7566;DHT22;3824;48.010;7.832;2022-10-31T08:24:46;14.30;99.90
7566;DHT22;3824;48.010;7.832;2022-10-31T08:27:13;14.40;99.90
7566;DHT22;3824;48.010;7.832;2022-10-31T08:29:40;14.60;99.90
7566;DHT22;3824;48.010;7.832;2022-10-31T08:32:06;14.70;99.90
7566;DHT22;3824;48.010;7.832;2022-10-31T08:34:33;14.80;99.90
7566;DHT22;3824;48.010;7.832;2022-10-31T08:37:01;14.80;99.90
7566;DHT22;3824;48.010;7.832;2022-10-31T08:39:28;15.00;99.90
7566;DHT22;3824;48.010;7.832;2022-10-31T08:41:56;15.10;99.90
7566;DHT22;3824;48.010;7.832;2022-10-31T08:44:23;15.20;99.90
7566;DHT22;3824;48.010;7.832;2022-10-31T08:46:50;15.20;99.90
7566;DHT22;3824;48.010;7.832;2022-10-31T08:49:17;15.30;99.90
7566;DHT22;3824;48.010;7.832;2022-10-31T08:51:47;15.30;99.90
7566;DHT22;3824;48.010;7.832;2022-10-31T08:54:14;15.40;99.90
7566;DHT22;3824;48.010;7.832;2022-10-31T08:56:41;15.50;99.90
7566;DHT22;3824;48.010;7.832;2022-10-31T08:59:09;15.50;99.90
7566;DHT22;3824;48.010;7.832;2022-10-31T09:01:36;15.50;99.90
7566;DHT22;3824;48.010;7.832;2022-10-31T09:04:03;15.60;99.90
7566;DHT22;3824;48.010;7.832;2022-10-31T09:06:29;15.60;99.90
7566;DHT22;3824;48.010;7.832;2022-10-31T09:08:56;15.60;99.90
7566;DHT22;3824;48.010;7.832;2022-10-31T09:11:24;15.60;99.90
7566;DHT22;3824;48.010;7.832;2022-10-31T09:13:52;15.70;99.90
7566;DHT22;3824;48.010;7.832;2022-10-31T09:16:20;15.70;99.90
7566;DHT22;3824;48.010;7.832;2022-10-31T09:18:47;15.80;99.90
7566;DHT22;3824;48.010;7.832;2022-10-31T09:21:14;15.80;99.90
7566;DHT22;3824;48.010;7.832;2022-10-31T09:23:41;15.80;99.90
7566;DHT22;3824;48.010;7.832;2022-10-31T09:26:08;15.90;99.90
7566;DHT22;3824;48.010;7.832;2022-10-31T09:28:35;15.90;99.90
7566;DHT22;3824;48.010;7.832;2022-10-31T09:31:02;15.90;99.90
7566;DHT22;3824;48.010;7.832;2022-10-31T09:33:30;16.00;99.90
7566;DHT22;3824;48.010;7.832;2022-10-31T09:35:58;16.00;99.90
7566;DHT22;3824;48.010;7.832;2022-10-31T09:38:25;16.10;99.90
7566;DHT22;3824;48.010;7.832;2022-10-31T09:40:55;16.20;99.90
7566;DHT22;3824;48.010;7.832;2022-10-31T09:43:31;16.30;99.90
7566;DHT22;3824;48.010;7.832;2022-10-31T09:46:04;16.40;99.90
7566;DHT22;3824;48.010;7.832;2022-10-31T09:48:52;16.50;99.90
7566;DHT22;3824;48.010;7.832;2022-10-31T09:51:24;16.60;99.90
7566;DHT22;3824;48.010;7.832;2022-10-31T09:53:55;16.70;99.90
7566;DHT22;3824;48.010;7.832;2022-10-31T09:56:25;16.70;99.90
7566;DHT22;3824;48.010;7.832;2022-10-31T09:58:55;16.80;99.90
7566;DHT22;3824;48.010;7.832;2022-10-31T10:01:36;16.80;99.90
7566;DHT22;3824;48.010;7.832;2022-10-31T10:04:20;16.90;99.90
7566;DHT22;3824;48.010;7.832;2022-10-31T10:06:54;16.90;99.90
7566;DHT22;3824;48.010;7.832;2022-10-31T10:09:24;17.00;99.90
7566;DHT22;3824;48.010;7.832;2022-10-31T10:11:58;17.00;99.90
7566;DHT22;3824;48.010;7.832;2022-10-31T10:14:36;17.10;99.90
7566;DHT22;3824;48.010;7.832;2022-10-31T10:17:15;17.10;99.90
7566;DHT22;3824;48.010;7.832;2022-10-31T10:19:55;17.20;99.90
7566;DHT22;3824;48.010;7.832;2022-10-31T10:22:28;17.30;99.90
7566;DHT22;3824;48.010;7.832;2022-10-31T10:25:04;17.30;99.90
7566;DHT22;3824;48.010;7.832;2022-10-31T10:27:46;17.40;99.90
7566;DHT22;3824;48.010;7.832;2022-10-31T10:30:18;17.40;99.90
7566;DHT22;3824;48.010;7.832;2022-10-31T10:32:47;17.50;99.90
7566;DHT22;3824;48.010;7.832;2022-10-31T10:35:22;17.50;99.90
7566;DHT22;3824;48.010;7.832;2022-10-31T10:37:54;17.40;99.90
7566;DHT22;3824;48.010;7.832;2022-10-31T10:40:24;17.50;99.90
7566;DHT22;3824;48.010;7.832;2022-10-31T10:42:58;18.80;99.90
7566;DHT22;3824;48.010;7.832;2022-10-31T10:45:46;17.40;99.90
7566;DHT22;3824;48.010;7.832;2022-10-31T10:48:41;17.30;99.90
7566;DHT22;3824;48.010;7.832;2022-10-31T10:51:23;17.30;99.90
7566;DHT22;3824;48.010;7.832;2022-10-31T10:54:03;17.20;99.90
7566;DHT22;3824;48.010;7.832;2022-10-31T10:56:51;17.20;99.90
7566;DHT22;3824;48.010;7.832;2022-10-31T10:59:21;17.10;99.90
7566;DHT22;3824;48.010;7.832;2022-10-31T11:01:50;16.70;99.90
7566;DHT22;3824;48.010;7.832;2022-10-31T11:04:31;17.00;99.90
7566;DHT22;3824;48.010;7.832;2022-10-31T11:07:03;17.00;99.90
7566;DHT22;3824;48.010;7.832;2022-10-31T11:09:30;16.90;99.90
7566;DHT22;3824;48.010;7.832;2022-10-31T11:11:58;17.00;99.90
7566;DHT22;3824;48.010;7.832;2022-10-31T11:14:26;17.00;99.90
7566;DHT22;3824;48.010;7.832;2022-10-31T11:16:55;17.10;99.90
7566;DHT22;3824;48.010;7.832;2022-10-31T11:19:34;17.20;99.90
7566;DHT22;3824;48.010;7.832;2022-10-31T11:22:07;17.30;99.90
7566;DHT22;3824;48.010;7.832;2022-10-31T11:24:39;17.40;99.90
7566;DHT22;3824;48.010;7.832;2022-10-31T11:27:15;17.60;99.90
7566;DHT22;3824;48.010;7.832;2022-10-31T11:29:42;17.60;99.90
7566;DHT22;3824;48.010;7.832;2022-10-31T11:32:19;17.80;99.90
7566;DHT22;3824;48.010;7.832;2022-10-31T11:34:49;17.80;99.90
7566;DHT22;3824;48.010;7.832;2022-10-31T11:37:20;17.90;99.90
7566;DHT22;3824;48.010;7.832;2022-10-31T11:39:51;18.00;99.90
7566;DHT22;3824;48.010;7.832;2022-10-31T11:42:21;18.20;99.90
7566;DHT22;3824;48.010;7.832;2022-10-31T11:44:50;18.20;99.90
7566;DHT22;3824;48.010;7.832;2022-10-31T11:47:23;18.20;99.90
7566;DHT22;3824;48.010;7.832;2022-10-31T11:49:51;18.20;99.90
7566;DHT22;3824;48.010;7.832;2022-10-31T11:52:23;18.20;99.90
7566;DHT22;3824;48.010;7.832;2022-10-31T11:54:54;18.10;99.90
7566;DHT22;3824;48.010;7.832;2022-10-31T11:57:26;18.20;99.90
7566;DHT22;3824;48.010;7.832;2022-10-31T11:59:54;18.30;99.90
7566;DHT22;3824;48.010;7.832;2022-10-31T12:02:22;18.30;99.90
7566;DHT22;3824;48.010;7.832;2022-10-31T12:04:58;18.20;99.90
7566;DHT22;3824;48.010;7.832;2022-10-31T12:07:28;18.20;99.90
7566;DHT22;3824;48.010;7.832;2022-10-31T12:09:55;18.10;99.90
7566;DHT22;3824;48.010;7.832;2022-10-31T12:12:37;18.10;99.90
7566;DHT22;3824;48.010;7.832;2022-10-31T12:15:18;18.10;99.90
7566;DHT22;3824;48.010;7.832;2022-10-31T12:17:53;18.20;99.90
7566;DHT22;3824;48.010;7.832;2022-10-31T12:20:30;18.30;99.90
7566;DHT22;3824;48.010;7.832;2022-10-31T12:23:09;19.40;99.90
7566;DHT22;3824;48.010;7.832;2022-10-31T12:25:45;18.40;99.90
7566;DHT22;3824;48.010;7.832;2022-10-31T12:28:44;18.50;99.90
7566;DHT22;3824;48.010;7.832;2022-10-31T12:31:22;18.50;99.90
7566;DHT22;3824;48.010;7.832;2022-10-31T12:33:56;18.50;99.90
7566;DHT22;3824;48.010;7.832;2022-10-31T12:36:35;18.50;99.90
7566;DHT22;3824;48.010;7.832;2022-10-31T12:39:25;18.50;99.90
7566;DHT22;3824;48.010;7.832;2022-10-31T12:42:01;18.60;99.90
7566;DHT22;3824;48.010;7.832;2022-10-31T12:45:04;18.60;99.90
7566;DHT22;3824;48.010;7.832;2022-10-31T12:47:44;18.70;99.90
7566;DHT22;3824;48.010;7.832;2022-10-31T12:50:26;18.70;99.90
7566;DHT22;3824;48.010;7.832;2022-10-31T12:53:06;18.70;99.90
7566;DHT22;3824;48.010;7.832;2022-10-31T12:55:44;18.70;99.90
7566;DHT22;3824;48.010;7.832;2022-10-31T12:58:22;18.80;99.90
7566;DHT22;3824;48.010;7.832;2022-10-31T13:00:57;18.80;99.90
7566;DHT22;3824;48.010;7.832;2022-10-31T13:03:31;18.70;99.90
7566;DHT22;3824;48.010;7.832;2022-10-31T13:06:04;18.90;99.90
7566;DHT22;3824;48.010;7.832;2022-10-31T13:08:36;18.90;99.90
7566;DHT22;3824;48.010;7.832;2022-10-31T13:11:10;18.80;99.90
7566;DHT22;3824;48.010;7.832;2022-10-31T13:13:42;18.80;99.90
7566;DHT22;3824;48.010;7.832;2022-10-31T13:16:13;18.70;99.90
7566;DHT22;3824;48.010;7.832;2022-10-31T13:18:46;18.60;99.90
7566;DHT22;3824;48.010;7.832;2022-10-31T13:21:20;18.50;99.90
7566;DHT22;3824;48.010;7.832;2022-10-31T13:23:49;18.50;99.90
7566;DHT22;3824;48.010;7.832;2022-10-31T13:26:24;18.40;99.90
7566;DHT22;3824;48.010;7.832;2022-10-31T13:29:00;18.40;99.90
7566;DHT22;3824;48.010;7.832;2022-10-31T13:31:29;18.50;99.90
7566;DHT22;3824;48.010;7.832;2022-10-31T13:33:59;18.50;99.90
7566;DHT22;3824;48.010;7.832;2022-10-31T13:36:32;18.60;99.90
7566;DHT22;3824;48.010;7.832;2022-10-31T13:39:10;18.60;99.90
7566;DHT22;3824;48.010;7.832;2022-10-31T13:41:45;18.70;99.90
7566;DHT22;3824;48.010;7.832;2022-10-31T13:44:16;18.80;99.90
7566;DHT22;3824;48.010;7.832;2022-10-31T13:46:44;18.80;99.90
7566;DHT22;3824;48.010;7.832;2022-10-31T13:49:36;18.90;99.90
7566;DHT22;3824;48.010;7.832;2022-10-31T13:52:23;18.90;99.90
7566;DHT22;3824;48.010;7.832;2022-10-31T13:54:52;18.80;99.90
7566;DHT22;3824;48.010;7.832;2022-10-31T13:57:31;18.70;99.90
7566;DHT22;3824;48.010;7.832;2022-10-31T14:00:00;18.80;99.90
7566;DHT22;3824;48.010;7.832;2022-10-31T14:02:30;18.70;99.90
7566;DHT22;3824;48.010;7.832;2022-10-31T14:04:59;18.70;99.90
7566;DHT22;3824;48.010;7.832;2022-10-31T14:07:27;18.60;99.90
7566;DHT22;3824;48.010;7.832;2022-10-31T14:09:57;18.60;99.90
7566;DHT22;3824;48.010;7.832;2022-10-31T14:12:30;18.50;99.90
7566;DHT22;3824;48.010;7.832;2022-10-31T14:15:02;18.50;99.90
7566;DHT22;3824;48.010;7.832;2022-10-31T14:17:34;18.50;99.90
7566;DHT22;3824;48.010;7.832;2022-10-31T14:20:25;18.40;99.90
7566;DHT22;3824;48.010;7.832;2022-10-31T14:22:52;18.50;99.90
7566;DHT22;3824;48.010;7.832;2022-10-31T14:25:31;18.50;99.90
7566;DHT22;3824;48.010;7.832;2022-10-31T14:28:01;18.50;99.90
7566;DHT22;3824;48.010;7.832;2022-10-31T14:30:30;18.60;99.90
7566;DHT22;3824;48.010;7.832;2022-10-31T14:32:59;18.60;99.90
7566;DHT22;3824;48.010;7.832;2022-10-31T14:35:49;18.60;99.90
7566;DHT22;3824;48.010;7.832;2022-10-31T14:38:35;18.70;99.90
7566;DHT22;3824;48.010;7.832;2022-10-31T14:44:24;18.80;99.90
7566;DHT22;3824;48.010;7.832;2022-10-31T14:47:00;18.80;99.90
7566;DHT22;3824;48.010;7.832;2022-10-31T14:49:55;18.90;99.90
7566;DHT22;3824;48.010;7.832;2022-10-31T14:52:24;18.90;99.90
7566;DHT22;3824;48.010;7.832;2022-10-31T14:54:53;18.80;99.90
7566;DHT22;3824;48.010;7.832;2022-10-31T14:57:24;18.80;99.90
7566;DHT22;3824;48.010;7.832;2022-10-31T14:59:56;18.70;99.90
7566;DHT22;3824;48.010;7.832;2022-10-31T15:02:27;18.60;99.90
7566;DHT22;3824;48.010;7.832;2022-10-31T15:04:55;18.50;99.90
7566;DHT22;3824;48.010;7.832;2022-10-31T15:07:25;18.40;99.90
7566;DHT22;3824;48.010;7.832;2022-10-31T15:09:56;18.30;99.90
7566;DHT22;3824;48.010;7.832;2022-10-31T15:12:25;18.20;99.90
7566;DHT22;3824;48.010;7.832;2022-10-31T15:14:54;18.20;99.90
7566;DHT22;3824;48.010;7.832;2022-10-31T15:17:22;18.10;99.90
7566;DHT22;3824;48.010;7.832;2022-10-31T15:19:50;18.10;99.90
7566;DHT22;3824;48.010;7.832;2022-10-31T15:22:19;18.00;99.90
7566;DHT22;3824;48.010;7.832;2022-10-31T15:24:48;17.90;99.90
7566;DHT22;3824;48.010;7.832;2022-10-31T15:27:21;17.90;99.90
7566;DHT22;3824;48.010;7.832;2022-10-31T15:29:51;17.80;99.90
7566;DHT22;3824;48.010;7.832;2022-10-31T15:32:21;17.70;99.90
7566;DHT22;3824;48.010;7.832;2022-10-31T15:34:49;17.60;99.90
7566;DHT22;3824;48.010;7.832;2022-10-31T15:37:18;17.50;99.90
7566;DHT22;3824;48.010;7.832;2022-10-31T15:39:47;17.40;99.90
7566;DHT22;3824;48.010;7.832;2022-10-31T15:42:20;17.30;99.90
7566;DHT22;3824;48.010;7.832;2022-10-31T15:44:51;17.20;99.90
7566;DHT22;3824;48.010;7.832;2022-10-31T15:47:22;17.10;99.90
7566;DHT22;3824;48.010;7.832;2022-10-31T15:49:52;17.10;99.90
7566;DHT22;3824;48.010;7.832;2022-10-31T15:52:27;17.00;99.90
7566;DHT22;3824;48.010;7.832;2022-10-31T15:54:57;16.90;99.90
7566;DHT22;3824;48.010;7.832;2022-10-31T15:57:24;16.90;99.90
7566;DHT22;3824;48.010;7.832;2022-10-31T15:59:53;16.70;99.90
7566;DHT22;3824;48.010;7.832;2022-10-31T16:02:23;16.60;99.90
7566;DHT22;3824;48.010;7.832;2022-10-31T16:04:53;16.60;99.90
7566;DHT22;3824;48.010;7.832;2022-10-31T16:07:21;16.50;99.90
7566;DHT22;3824;48.010;7.832;2022-10-31T16:09:53;16.40;99.90
7566;DHT22;3824;48.010;7.832;2022-10-31T16:12:21;16.30;99.90
7566;DHT22;3824;48.010;7.832;2022-10-31T16:14:49;16.20;99.90
7566;DHT22;3824;48.010;7.832;2022-10-31T16:17:18;16.10;99.90
7566;DHT22;3824;48.010;7.832;2022-10-31T16:19:53;16.00;99.90
7566;DHT22;3824;48.010;7.832;2022-10-31T16:22:25;15.90;99.90
7566;DHT22;3824;48.010;7.832;2022-10-31T16:24:56;15.90;99.90
7566;DHT22;3824;48.010;7.832;2022-10-31T16:27:25;15.70;99.90
7566;DHT22;3824;48.010;7.832;2022-10-31T16:29:54;15.70;99.90
7566;DHT22;3824;48.010;7.832;2022-10-31T16:32:30;15.70;99.90